sensor_id;sensor_type;location;lat;lon;timestamp;P1;durP1;ratioP1;P2;durP2;ratioP2
25207;SDS011;13153;52.316;21.166;2024-02-15T00:00:14;15.68;;;7.63;;
25207;SDS011;13153;52.316;21.166;2024-02-15T00:02:42;15.70;;;7.82;;
25207;SDS011;13153;52.316;21.166;2024-02-15T00:05:09;16.73;;;8.35;;
25207;SDS011;13153;52.316;21.166;2024-02-15T00:07:41;18.30;;;7.68;;
25207;SDS011;13153;52.316;21.166;2024-02-15T00:10:06;18.52;;;7.95;;
25207;SDS011;13153;52.316;21.166;2024-02-15T00:12:33;16.90;;;7.95;;
25207;SDS011;13153;52.316;21.166;2024-02-15T00:15:00;17.13;;;7.85;;
25207;SDS011;13153;52.316;21.166;2024-02-15T00:17:27;19.35;;;8.07;;
25207;SDS011;13153;52.316;21.166;2024-02-15T00:19:55;21.38;;;7.93;;
25207;SDS011;13153;52.316;21.166;2024-02-15T00:22:21;17.38;;;7.13;;
25207;SDS011;13153;52.316;21.166;2024-02-15T00:24:47;13.88;;;7.57;;
25207;SDS011;13153;52.316;21.166;2024-02-15T00:27:15;15.43;;;7.20;;
25207;SDS011;13153;52.316;21.166;2024-02-15T00:29:41;16.40;;;7.20;;
25207;SDS011;13153;52.316;21.166;2024-02-15T00:32:08;15.07;;;7.45;;
25207;SDS011;13153;52.316;21.166;2024-02-15T00:34:37;16.40;;;7.70;;
25207;SDS011;13153;52.316;21.166;2024-02-15T00:37:06;17.35;;;7.65;;
25207;SDS011;13153;52.316;21.166;2024-02-15T00:39:32;18.02;;;7.78;;
25207;SDS011;13153;52.316;21.166;2024-02-15T00:41:58;15.15;;;7.85;;
25207;SDS011;13153;52.316;21.166;2024-02-15T00:44:25;16.02;;;7.32;;
25207;SDS011;13153;52.316;21.166;2024-02-15T00:46:52;16.15;;;7.72;;
25207;SDS011;13153;52.316;21.166;2024-02-15T00:49:17;15.95;;;8.43;;
25207;SDS011;13153;52.316;21.166;2024-02-15T00:51:45;24.67;;;8.05;;
25207;SDS011;13153;52.316;21.166;2024-02-15T00:54:12;14.70;;;7.57;;
25207;SDS011;13153;52.316;21.166;2024-02-15T00:56:37;16.65;;;7.63;;
25207;SDS011;13153;52.316;21.166;2024-02-15T00:59:04;16.25;;;7.50;;
25207;SDS011;13153;52.316;21.166;2024-02-15T01:01:31;17.02;;;7.63;;
25207;SDS011;13153;52.316;21.166;2024-02-15T01:03:57;17.67;;;7.57;;
25207;SDS011;13153;52.316;21.166;2024-02-15T01:06:23;16.75;;;7.82;;
25207;SDS011;13153;52.316;21.166;2024-02-15T01:08:49;16.90;;;7.55;;
25207;SDS011;13153;52.316;21.166;2024-02-15T01:11:15;17.85;;;8.13;;
25207;SDS011;13153;52.316;21.166;2024-02-15T01:13:40;17.38;;;7.95;;
25207;SDS011;13153;52.316;21.166;2024-02-15T01:16:07;16.85;;;7.57;;
25207;SDS011;13153;52.316;21.166;2024-02-15T01:18:33;21.45;;;8.38;;
25207;SDS011;13153;52.316;21.166;2024-02-15T01:20:59;15.43;;;7.80;;
25207;SDS011;13153;52.316;21.166;2024-02-15T01:23:25;16.42;;;7.55;;
25207;SDS011;13153;52.316;21.166;2024-02-15T01:25:52;17.55;;;7.68;;
25207;SDS011;13153;52.316;21.166;2024-02-15T01:28:17;19.73;;;8.15;;
25207;SDS011;13153;52.316;21.166;2024-02-15T01:30:44;17.40;;;8.10;;
25207;SDS011;13153;52.316;21.166;2024-02-15T01:33:11;17.35;;;8.27;;
25207;SDS011;13153;52.316;21.166;2024-02-15T01:35:37;15.85;;;7.78;;
25207;SDS011;13153;52.316;21.166;2024-02-15T01:38:03;15.82;;;7.72;;
25207;SDS011;13153;52.316;21.166;2024-02-15T01:40:30;16.15;;;7.50;;
25207;SDS011;13153;52.316;21.166;2024-02-15T01:42:56;19.85;;;8.73;;
25207;SDS011;13153;52.316;21.166;2024-02-15T01:45:23;18.73;;;8.45;;
25207;SDS011;13153;52.316;21.166;2024-02-15T01:47:50;17.25;;;7.68;;
25207;SDS011;13153;52.316;21.166;2024-02-15T01:50:18;20.02;;;8.25;;
25207;SDS011;13153;52.316;21.166;2024-02-15T01:52:47;19.45;;;8.30;;
25207;SDS011;13153;52.316;21.166;2024-02-15T01:55:19;17.40;;;8.15;;
25207;SDS011;13153;52.316;21.166;2024-02-15T01:57:47;18.40;;;7.80;;
25207;SDS011;13153;52.316;21.166;2024-02-15T02:00:17;17.92;;;8.40;;
25207;SDS011;13153;52.316;21.166;2024-02-15T02:02:44;18.85;;;8.57;;
25207;SDS011;13153;52.316;21.166;2024-02-15T02:05:11;17.65;;;7.93;;
25207;SDS011;13153;52.316;21.166;2024-02-15T02:07:37;21.80;;;8.82;;
25207;SDS011;13153;52.316;21.166;2024-02-15T02:10:04;22.02;;;8.25;;
25207;SDS011;13153;52.316;21.166;2024-02-15T02:12:32;19.58;;;8.25;;
25207;SDS011;13153;52.316;21.166;2024-02-15T02:14:58;18.85;;;8.07;;
25207;SDS011;13153;52.316;21.166;2024-02-15T02:17:24;17.90;;;8.82;;
25207;SDS011;13153;52.316;21.166;2024-02-15T02:19:49;20.90;;;9.23;;
25207;SDS011;13153;52.316;21.166;2024-02-15T02:22:15;18.50;;;8.63;;
25207;SDS011;13153;52.316;21.166;2024-02-15T02:24:57;17.83;;;8.07;;
25207;SDS011;13153;52.316;21.166;2024-02-15T02:27:28;27.05;;;8.95;;
25207;SDS011;13153;52.316;21.166;2024-02-15T02:29:56;22.80;;;8.95;;
25207;SDS011;13153;52.316;21.166;2024-02-15T02:32:24;19.42;;;9.02;;
25207;SDS011;13153;52.316;21.166;2024-02-15T02:34:51;16.17;;;8.45;;
25207;SDS011;13153;52.316;21.166;2024-02-15T02:37:25;19.85;;;8.75;;
25207;SDS011;13153;52.316;21.166;2024-02-15T02:39:51;19.88;;;8.10;;
25207;SDS011;13153;52.316;21.166;2024-02-15T02:42:17;18.13;;;8.27;;
25207;SDS011;13153;52.316;21.166;2024-02-15T02:44:43;18.33;;;9.20;;
25207;SDS011;13153;52.316;21.166;2024-02-15T02:47:09;18.00;;;8.80;;
25207;SDS011;13153;52.316;21.166;2024-02-15T02:49:35;22.02;;;9.52;;
25207;SDS011;13153;52.316;21.166;2024-02-15T02:52:02;19.23;;;9.20;;
25207;SDS011;13153;52.316;21.166;2024-02-15T02:54:29;21.15;;;9.07;;
25207;SDS011;13153;52.316;21.166;2024-02-15T02:56:55;20.77;;;9.80;;
25207;SDS011;13153;52.316;21.166;2024-02-15T02:59:21;22.15;;;9.65;;
25207;SDS011;13153;52.316;21.166;2024-02-15T03:01:47;19.33;;;9.30;;
25207;SDS011;13153;52.316;21.166;2024-02-15T03:04:16;19.67;;;9.13;;
25207;SDS011;13153;52.316;21.166;2024-02-15T03:06:45;19.77;;;9.23;;
25207;SDS011;13153;52.316;21.166;2024-02-15T03:09:11;21.98;;;9.25;;
25207;SDS011;13153;52.316;21.166;2024-02-15T03:11:40;20.80;;;9.10;;
25207;SDS011;13153;52.316;21.166;2024-02-15T03:14:05;18.98;;;8.73;;
25207;SDS011;13153;52.316;21.166;2024-02-15T03:16:32;20.00;;;9.10;;
25207;SDS011;13153;52.316;21.166;2024-02-15T03:18:58;18.98;;;9.25;;
25207;SDS011;13153;52.316;21.166;2024-02-15T03:21:29;23.70;;;9.75;;
25207;SDS011;13153;52.316;21.166;2024-02-15T03:23:55;22.52;;;8.63;;
25207;SDS011;13153;52.316;21.166;2024-02-15T03:26:29;22.90;;;9.82;;
25207;SDS011;13153;52.316;21.166;2024-02-15T03:29:02;21.83;;;9.30;;
25207;SDS011;13153;52.316;21.166;2024-02-15T03:31:28;22.73;;;9.00;;
25207;SDS011;13153;52.316;21.166;2024-02-15T03:33:56;21.42;;;9.82;;
25207;SDS011;13153;52.316;21.166;2024-02-15T03:36:24;22.35;;;9.23;;
25207;SDS011;13153;52.316;21.166;2024-02-15T03:38:49;18.25;;;9.52;;
25207;SDS011;13153;52.316;21.166;2024-02-15T03:41:17;17.85;;;9.05;;
25207;SDS011;13153;52.316;21.166;2024-02-15T03:43:43;22.10;;;9.35;;
25207;SDS011;13153;52.316;21.166;2024-02-15T03:46:09;17.98;;;9.05;;
25207;SDS011;13153;52.316;21.166;2024-02-15T03:48:37;18.30;;;9.05;;
25207;SDS011;13153;52.316;21.166;2024-02-15T03:51:04;18.25;;;9.50;;
25207;SDS011;13153;52.316;21.166;2024-02-15T03:53:49;19.27;;;9.23;;
25207;SDS011;13153;52.316;21.166;2024-02-15T03:56:17;21.60;;;10.23;;
25207;SDS011;13153;52.316;21.166;2024-02-15T03:58:46;23.02;;;9.95;;
25207;SDS011;13153;52.316;21.166;2024-02-15T04:01:12;17.58;;;9.23;;
25207;SDS011;13153;52.316;21.166;2024-02-15T04:03:40;19.58;;;9.60;;
25207;SDS011;13153;52.316;21.166;2024-02-15T04:06:06;18.25;;;9.45;;
25207;SDS011;13153;52.316;21.166;2024-02-15T04:08:31;22.08;;;9.73;;
25207;SDS011;13153;52.316;21.166;2024-02-15T04:10:58;22.13;;;8.98;;
25207;SDS011;13153;52.316;21.166;2024-02-15T04:13:24;16.55;;;9.32;;
25207;SDS011;13153;52.316;21.166;2024-02-15T04:15:50;18.70;;;9.30;;
25207;SDS011;13153;52.316;21.166;2024-02-15T04:18:18;18.60;;;8.82;;
25207;SDS011;13153;52.316;21.166;2024-02-15T04:20:44;19.73;;;9.43;;
25207;SDS011;13153;52.316;21.166;2024-02-15T04:23:11;20.40;;;9.75;;
25207;SDS011;13153;52.316;21.166;2024-02-15T04:25:38;20.15;;;9.32;;
25207;SDS011;13153;52.316;21.166;2024-02-15T04:28:04;18.73;;;9.10;;
25207;SDS011;13153;52.316;21.166;2024-02-15T04:30:30;18.30;;;9.38;;
25207;SDS011;13153;52.316;21.166;2024-02-15T04:32:56;18.85;;;9.50;;
25207;SDS011;13153;52.316;21.166;2024-02-15T04:35:22;21.42;;;9.98;;
25207;SDS011;13153;52.316;21.166;2024-02-15T04:37:49;24.50;;;9.70;;
25207;SDS011;13153;52.316;21.166;2024-02-15T04:40:16;25.00;;;9.48;;
25207;SDS011;13153;52.316;21.166;2024-02-15T04:42:43;20.15;;;9.18;;
25207;SDS011;13153;52.316;21.166;2024-02-15T04:45:10;18.80;;;9.60;;
25207;SDS011;13153;52.316;21.166;2024-02-15T04:47:38;19.52;;;8.88;;
25207;SDS011;13153;52.316;21.166;2024-02-15T04:50:06;19.52;;;9.30;;
25207;SDS011;13153;52.316;21.166;2024-02-15T04:52:32;18.80;;;8.88;;
25207;SDS011;13153;52.316;21.166;2024-02-15T04:54:58;19.88;;;8.98;;
25207;SDS011;13153;52.316;21.166;2024-02-15T04:57:24;19.23;;;9.07;;
25207;SDS011;13153;52.316;21.166;2024-02-15T04:59:56;22.17;;;10.30;;
25207;SDS011;13153;52.316;21.166;2024-02-15T05:02:24;20.65;;;9.48;;
25207;SDS011;13153;52.316;21.166;2024-02-15T05:04:50;17.00;;;9.07;;
25207;SDS011;13153;52.316;21.166;2024-02-15T05:07:22;20.50;;;9.52;;
25207;SDS011;13153;52.316;21.166;2024-02-15T05:09:48;27.60;;;9.73;;
25207;SDS011;13153;52.316;21.166;2024-02-15T05:12:21;20.13;;;9.30;;
25207;SDS011;13153;52.316;21.166;2024-02-15T05:14:51;20.33;;;9.43;;
25207;SDS011;13153;52.316;21.166;2024-02-15T05:17:18;22.17;;;10.02;;
25207;SDS011;13153;52.316;21.166;2024-02-15T05:19:44;20.45;;;10.13;;
25207;SDS011;13153;52.316;21.166;2024-02-15T05:22:10;23.70;;;10.02;;
25207;SDS011;13153;52.316;21.166;2024-02-15T05:24:36;21.02;;;10.60;;
25207;SDS011;13153;52.316;21.166;2024-02-15T05:27:04;23.52;;;10.40;;
25207;SDS011;13153;52.316;21.166;2024-02-15T05:29:30;37.20;;;16.25;;
25207;SDS011;13153;52.316;21.166;2024-02-15T05:32:00;46.00;;;18.58;;
25207;SDS011;13153;52.316;21.166;2024-02-15T05:34:27;54.20;;;23.55;;
25207;SDS011;13153;52.316;21.166;2024-02-15T05:36:54;37.00;;;17.20;;
25207;SDS011;13153;52.316;21.166;2024-02-15T05:39:21;46.75;;;20.20;;
25207;SDS011;13153;52.316;21.166;2024-02-15T05:41:48;35.38;;;15.27;;
25207;SDS011;13153;52.316;21.166;2024-02-15T05:44:13;26.92;;;12.27;;
25207;SDS011;13153;52.316;21.166;2024-02-15T05:46:44;27.70;;;12.13;;
25207;SDS011;13153;52.316;21.166;2024-02-15T05:49:10;25.00;;;12.73;;
25207;SDS011;13153;52.316;21.166;2024-02-15T05:51:40;23.33;;;11.00;;
25207;SDS011;13153;52.316;21.166;2024-02-15T05:54:07;22.25;;;10.35;;
25207;SDS011;13153;52.316;21.166;2024-02-15T05:56:32;22.42;;;9.80;;
25207;SDS011;13153;52.316;21.166;2024-02-15T05:58:58;22.40;;;10.50;;
25207;SDS011;13153;52.316;21.166;2024-02-15T06:01:27;24.30;;;9.85;;
25207;SDS011;13153;52.316;21.166;2024-02-15T06:03:54;23.23;;;9.85;;
25207;SDS011;13153;52.316;21.166;2024-02-15T06:06:20;23.23;;;10.18;;
25207;SDS011;13153;52.316;21.166;2024-02-15T06:08:47;24.73;;;11.57;;
25207;SDS011;13153;52.316;21.166;2024-02-15T06:11:18;22.52;;;10.45;;
25207;SDS011;13153;52.316;21.166;2024-02-15T06:13:45;24.52;;;11.27;;
25207;SDS011;13153;52.316;21.166;2024-02-15T06:16:11;23.48;;;11.20;;
25207;SDS011;13153;52.316;21.166;2024-02-15T06:18:37;19.80;;;10.63;;
25207;SDS011;13153;52.316;21.166;2024-02-15T06:21:03;23.33;;;10.25;;
25207;SDS011;13153;52.316;21.166;2024-02-15T06:23:29;23.08;;;10.50;;
25207;SDS011;13153;52.316;21.166;2024-02-15T06:25:55;24.77;;;11.38;;
25207;SDS011;13153;52.316;21.166;2024-02-15T06:28:27;21.90;;;10.82;;
25207;SDS011;13153;52.316;21.166;2024-02-15T06:31:11;24.35;;;12.27;;
25207;SDS011;13153;52.316;21.166;2024-02-15T06:33:58;22.60;;;12.32;;
25207;SDS011;13153;52.316;21.166;2024-02-15T06:36:46;28.05;;;13.18;;
25207;SDS011;13153;52.316;21.166;2024-02-15T06:39:35;26.67;;;12.07;;
25207;SDS011;13153;52.316;21.166;2024-02-15T06:42:08;30.85;;;12.13;;
25207;SDS011;13153;52.316;21.166;2024-02-15T06:44:36;25.27;;;12.02;;
25207;SDS011;13153;52.316;21.166;2024-02-15T06:47:05;33.28;;;12.70;;
25207;SDS011;13153;52.316;21.166;2024-02-15T06:49:32;22.15;;;12.00;;
25207;SDS011;13153;52.316;21.166;2024-02-15T06:51:58;23.45;;;11.55;;
25207;SDS011;13153;52.316;21.166;2024-02-15T06:54:27;26.20;;;12.85;;
25207;SDS011;13153;52.316;21.166;2024-02-15T06:56:53;27.77;;;13.35;;
25207;SDS011;13153;52.316;21.166;2024-02-15T06:59:20;29.20;;;13.93;;
25207;SDS011;13153;52.316;21.166;2024-02-15T07:01:48;30.55;;;14.00;;
25207;SDS011;13153;52.316;21.166;2024-02-15T07:04:17;34.85;;;15.30;;
25207;SDS011;13153;52.316;21.166;2024-02-15T07:06:45;34.35;;;16.40;;
25207;SDS011;13153;52.316;21.166;2024-02-15T07:09:13;31.83;;;15.93;;
25207;SDS011;13153;52.316;21.166;2024-02-15T07:11:44;33.03;;;16.20;;
25207;SDS011;13153;52.316;21.166;2024-02-15T07:14:11;34.60;;;16.02;;
25207;SDS011;13153;52.316;21.166;2024-02-15T07:16:38;33.45;;;17.13;;
25207;SDS011;13153;52.316;21.166;2024-02-15T07:19:04;36.45;;;17.02;;
25207;SDS011;13153;52.316;21.166;2024-02-15T07:21:30;34.67;;;15.80;;
25207;SDS011;13153;52.316;21.166;2024-02-15T07:23:57;38.25;;;18.00;;
25207;SDS011;13153;52.316;21.166;2024-02-15T07:26:24;43.72;;;20.05;;
25207;SDS011;13153;52.316;21.166;2024-02-15T07:28:51;35.60;;;17.60;;
25207;SDS011;13153;52.316;21.166;2024-02-15T07:31:20;34.95;;;16.98;;
25207;SDS011;13153;52.316;21.166;2024-02-15T07:33:47;31.35;;;15.32;;
25207;SDS011;13153;52.316;21.166;2024-02-15T07:36:22;35.15;;;16.40;;
25207;SDS011;13153;52.316;21.166;2024-02-15T07:38:52;31.75;;;15.50;;
25207;SDS011;13153;52.316;21.166;2024-02-15T07:41:21;33.30;;;16.63;;
25207;SDS011;13153;52.316;21.166;2024-02-15T07:43:50;41.92;;;18.02;;
25207;SDS011;13153;52.316;21.166;2024-02-15T07:46:20;34.72;;;16.90;;
25207;SDS011;13153;52.316;21.166;2024-02-15T07:48:47;34.30;;;17.25;;
25207;SDS011;13153;52.316;21.166;2024-02-15T07:51:17;37.38;;;17.02;;
25207;SDS011;13153;52.316;21.166;2024-02-15T07:53:46;38.15;;;17.92;;
25207;SDS011;13153;52.316;21.166;2024-02-15T07:56:14;32.70;;;16.83;;
25207;SDS011;13153;52.316;21.166;2024-02-15T07:58:41;34.40;;;17.20;;
25207;SDS011;13153;52.316;21.166;2024-02-15T08:01:15;35.03;;;18.58;;
25207;SDS011;13153;52.316;21.166;2024-02-15T08:03:41;35.25;;;16.48;;
25207;SDS011;13153;52.316;21.166;2024-02-15T08:06:14;38.72;;;17.73;;
25207;SDS011;13153;52.316;21.166;2024-02-15T08:08:42;36.05;;;18.20;;
25207;SDS011;13153;52.316;21.166;2024-02-15T08:11:14;39.97;;;18.13;;
25207;SDS011;13153;52.316;21.166;2024-02-15T08:13:46;38.28;;;17.60;;
25207;SDS011;13153;52.316;21.166;2024-02-15T08:16:19;35.55;;;18.00;;
25207;SDS011;13153;52.316;21.166;2024-02-15T08:18:49;39.67;;;17.77;;
25207;SDS011;13153;52.316;21.166;2024-02-15T08:21:25;34.15;;;18.25;;
25207;SDS011;13153;52.316;21.166;2024-02-15T08:23:54;33.00;;;18.20;;
25207;SDS011;13153;52.316;21.166;2024-02-15T08:26:21;36.00;;;18.58;;
25207;SDS011;13153;52.316;21.166;2024-02-15T08:28:49;38.15;;;19.42;;
25207;SDS011;13153;52.316;21.166;2024-02-15T08:31:15;39.05;;;17.88;;
25207;SDS011;13153;52.316;21.166;2024-02-15T08:33:41;39.03;;;19.27;;
25207;SDS011;13153;52.316;21.166;2024-02-15T08:36:10;36.95;;;20.33;;
25207;SDS011;13153;52.316;21.166;2024-02-15T08:38:39;36.47;;;18.27;;
25207;SDS011;13153;52.316;21.166;2024-02-15T08:41:06;42.58;;;18.67;;
25207;SDS011;13153;52.316;21.166;2024-02-15T08:43:33;34.10;;;18.17;;
25207;SDS011;13153;52.316;21.166;2024-02-15T08:45:59;41.35;;;19.45;;
25207;SDS011;13153;52.316;21.166;2024-02-15T08:48:31;46.35;;;20.10;;
25207;SDS011;13153;52.316;21.166;2024-02-15T08:50:57;41.78;;;19.48;;
25207;SDS011;13153;52.316;21.166;2024-02-15T08:53:23;38.65;;;19.33;;
25207;SDS011;13153;52.316;21.166;2024-02-15T08:55:49;46.47;;;20.73;;
25207;SDS011;13153;52.316;21.166;2024-02-15T08:58:17;39.80;;;19.98;;
25207;SDS011;13153;52.316;21.166;2024-02-15T09:00:46;40.40;;;20.67;;
25207;SDS011;13153;52.316;21.166;2024-02-15T09:03:12;46.00;;;21.58;;
25207;SDS011;13153;52.316;21.166;2024-02-15T09:05:38;38.17;;;19.73;;
25207;SDS011;13153;52.316;21.166;2024-02-15T09:08:08;49.15;;;23.15;;
25207;SDS011;13153;52.316;21.166;2024-02-15T09:10:34;46.25;;;23.55;;
25207;SDS011;13153;52.316;21.166;2024-02-15T09:13:01;44.83;;;22.77;;
25207;SDS011;13153;52.316;21.166;2024-02-15T09:15:27;53.63;;;23.35;;
25207;SDS011;13153;52.316;21.166;2024-02-15T09:17:55;51.95;;;23.83;;
25207;SDS011;13153;52.316;21.166;2024-02-15T09:20:23;53.25;;;24.50;;
25207;SDS011;13153;52.316;21.166;2024-02-15T09:22:53;46.35;;;22.58;;
25207;SDS011;13153;52.316;21.166;2024-02-15T09:25:21;54.20;;;24.23;;
25207;SDS011;13153;52.316;21.166;2024-02-15T09:27:51;47.25;;;23.67;;
25207;SDS011;13153;52.316;21.166;2024-02-15T09:30:20;48.30;;;22.38;;
25207;SDS011;13153;52.316;21.166;2024-02-15T09:32:49;53.08;;;23.83;;
25207;SDS011;13153;52.316;21.166;2024-02-15T09:35:15;47.72;;;24.17;;
25207;SDS011;13153;52.316;21.166;2024-02-15T09:37:45;45.90;;;23.25;;
25207;SDS011;13153;52.316;21.166;2024-02-15T09:40:15;53.55;;;26.60;;
25207;SDS011;13153;52.316;21.166;2024-02-15T09:42:46;50.20;;;24.27;;
25207;SDS011;13153;52.316;21.166;2024-02-15T09:45:13;52.50;;;26.75;;
25207;SDS011;13153;52.316;21.166;2024-02-15T09:47:43;51.22;;;25.98;;
25207;SDS011;13153;52.316;21.166;2024-02-15T09:52:52;55.95;;;25.08;;
25207;SDS011;13153;52.316;21.166;2024-02-15T09:55:26;48.75;;;24.88;;
25207;SDS011;13153;52.316;21.166;2024-02-15T09:57:54;59.95;;;29.83;;
25207;SDS011;13153;52.316;21.166;2024-02-15T10:00:20;50.67;;;26.33;;
25207;SDS011;13153;52.316;21.166;2024-02-15T10:02:52;52.50;;;26.40;;
25207;SDS011;13153;52.316;21.166;2024-02-15T10:05:18;53.30;;;26.45;;
25207;SDS011;13153;52.316;21.166;2024-02-15T10:07:45;54.53;;;28.25;;
25207;SDS011;13153;52.316;21.166;2024-02-15T10:10:15;52.90;;;26.27;;
25207;SDS011;13153;52.316;21.166;2024-02-15T10:12:44;52.88;;;26.25;;
25207;SDS011;13153;52.316;21.166;2024-02-15T10:18:03;55.03;;;26.20;;
25207;SDS011;13153;52.316;21.166;2024-02-15T10:20:35;53.50;;;26.40;;
25207;SDS011;13153;52.316;21.166;2024-02-15T10:23:10;51.70;;;27.42;;
25207;SDS011;13153;52.316;21.166;2024-02-15T10:25:37;56.38;;;28.50;;
25207;SDS011;13153;52.316;21.166;2024-02-15T10:28:08;53.50;;;28.52;;
25207;SDS011;13153;52.316;21.166;2024-02-15T10:30:36;55.58;;;28.17;;
25207;SDS011;13153;52.316;21.166;2024-02-15T10:33:08;54.50;;;28.08;;
25207;SDS011;13153;52.316;21.166;2024-02-15T10:35:35;54.80;;;29.35;;
25207;SDS011;13153;52.316;21.166;2024-02-15T10:38:10;49.63;;;27.25;;
25207;SDS011;13153;52.316;21.166;2024-02-15T10:40:38;54.85;;;28.65;;
25207;SDS011;13153;52.316;21.166;2024-02-15T10:43:09;59.63;;;29.38;;
25207;SDS011;13153;52.316;21.166;2024-02-15T10:45:39;56.72;;;28.15;;
25207;SDS011;13153;52.316;21.166;2024-02-15T10:48:07;54.60;;;28.88;;
25207;SDS011;13153;52.316;21.166;2024-02-15T10:50:39;59.35;;;28.83;;
25207;SDS011;13153;52.316;21.166;2024-02-15T10:56:07;59.88;;;29.48;;
25207;SDS011;13153;52.316;21.166;2024-02-15T10:58:49;53.28;;;26.95;;
25207;SDS011;13153;52.316;21.166;2024-02-15T11:01:20;51.80;;;28.85;;
25207;SDS011;13153;52.316;21.166;2024-02-15T11:06:28;55.28;;;29.38;;
25207;SDS011;13153;52.316;21.166;2024-02-15T11:11:29;54.45;;;28.67;;
25207;SDS011;13153;52.316;21.166;2024-02-15T11:14:22;50.80;;;27.48;;
25207;SDS011;13153;52.316;21.166;2024-02-15T11:16:55;62.08;;;30.48;;
25207;SDS011;13153;52.316;21.166;2024-02-15T11:22:01;58.35;;;29.45;;
25207;SDS011;13153;52.316;21.166;2024-02-15T11:24:35;55.70;;;27.20;;
25207;SDS011;13153;52.316;21.166;2024-02-15T11:27:05;55.47;;;27.50;;
25207;SDS011;13153;52.316;21.166;2024-02-15T11:29:57;52.67;;;28.40;;
25207;SDS011;13153;52.316;21.166;2024-02-15T11:35:17;58.00;;;28.42;;
25207;SDS011;13153;52.316;21.166;2024-02-15T11:40:19;66.80;;;29.60;;
25207;SDS011;13153;52.316;21.166;2024-02-15T11:43:03;51.85;;;26.58;;
25207;SDS011;13153;52.316;21.166;2024-02-15T11:45:29;56.60;;;28.67;;
25207;SDS011;13153;52.316;21.166;2024-02-15T11:48:02;51.92;;;27.42;;
25207;SDS011;13153;52.316;21.166;2024-02-15T11:50:33;50.67;;;27.20;;
25207;SDS011;13153;52.316;21.166;2024-02-15T11:53:04;51.83;;;26.25;;
25207;SDS011;13153;52.316;21.166;2024-02-15T11:55:36;49.63;;;27.35;;
25207;SDS011;13153;52.316;21.166;2024-02-15T11:58:03;50.80;;;28.17;;
25207;SDS011;13153;52.316;21.166;2024-02-15T12:00:42;48.97;;;25.05;;
25207;SDS011;13153;52.316;21.166;2024-02-15T12:03:27;50.65;;;26.13;;
25207;SDS011;13153;52.316;21.166;2024-02-15T12:09:01;47.90;;;26.50;;
25207;SDS011;13153;52.316;21.166;2024-02-15T12:14:30;45.67;;;24.70;;
25207;SDS011;13153;52.316;21.166;2024-02-15T12:17:15;46.05;;;26.15;;
25207;SDS011;13153;52.316;21.166;2024-02-15T12:20:00;47.75;;;25.20;;
25207;SDS011;13153;52.316;21.166;2024-02-15T12:22:39;49.35;;;26.58;;
25207;SDS011;13153;52.316;21.166;2024-02-15T12:25:13;48.75;;;25.67;;
25207;SDS011;13153;52.316;21.166;2024-02-15T12:27:41;51.10;;;25.17;;
25207;SDS011;13153;52.316;21.166;2024-02-15T12:30:14;45.10;;;24.40;;
25207;SDS011;13153;52.316;21.166;2024-02-15T12:32:45;47.73;;;24.10;;
25207;SDS011;13153;52.316;21.166;2024-02-15T12:35:15;52.20;;;25.42;;
25207;SDS011;13153;52.316;21.166;2024-02-15T12:40:30;44.90;;;24.13;;
25207;SDS011;13153;52.316;21.166;2024-02-15T12:42:58;46.80;;;24.33;;
25207;SDS011;13153;52.316;21.166;2024-02-15T12:45:30;46.58;;;25.25;;
25207;SDS011;13153;52.316;21.166;2024-02-15T12:47:57;43.05;;;24.15;;
25207;SDS011;13153;52.316;21.166;2024-02-15T12:50:25;48.50;;;25.23;;
25207;SDS011;13153;52.316;21.166;2024-02-15T12:52:54;48.83;;;25.10;;
25207;SDS011;13153;52.316;21.166;2024-02-15T12:55:21;44.67;;;23.63;;
25207;SDS011;13153;52.316;21.166;2024-02-15T12:57:52;41.70;;;23.80;;
25207;SDS011;13153;52.316;21.166;2024-02-15T13:00:22;52.13;;;25.17;;
25207;SDS011;13153;52.316;21.166;2024-02-15T13:02:54;44.47;;;23.50;;
25207;SDS011;13153;52.316;21.166;2024-02-15T13:05:22;41.50;;;22.95;;
25207;SDS011;13153;52.316;21.166;2024-02-15T13:07:51;41.97;;;22.02;;
25207;SDS011;13153;52.316;21.166;2024-02-15T13:10:22;40.95;;;22.30;;
25207;SDS011;13153;52.316;21.166;2024-02-15T13:12:51;43.80;;;22.85;;
25207;SDS011;13153;52.316;21.166;2024-02-15T13:15:18;50.88;;;26.33;;
25207;SDS011;13153;52.316;21.166;2024-02-15T13:17:49;47.30;;;23.88;;
25207;SDS011;13153;52.316;21.166;2024-02-15T13:20:18;46.65;;;23.33;;
25207;SDS011;13153;52.316;21.166;2024-02-15T13:22:58;44.67;;;24.85;;
25207;SDS011;13153;52.316;21.166;2024-02-15T13:25:47;46.85;;;24.35;;
25207;SDS011;13153;52.316;21.166;2024-02-15T13:28:15;48.15;;;23.75;;
25207;SDS011;13153;52.316;21.166;2024-02-15T13:30:41;49.55;;;24.23;;
25207;SDS011;13153;52.316;21.166;2024-02-15T13:33:13;44.85;;;23.05;;
25207;SDS011;13153;52.316;21.166;2024-02-15T13:35:39;45.88;;;23.80;;
25207;SDS011;13153;52.316;21.166;2024-02-15T13:38:06;40.97;;;23.15;;
25207;SDS011;13153;52.316;21.166;2024-02-15T13:40:34;47.90;;;23.85;;
25207;SDS011;13153;52.316;21.166;2024-02-15T13:43:00;44.85;;;23.08;;
25207;SDS011;13153;52.316;21.166;2024-02-15T13:45:38;45.40;;;22.80;;
25207;SDS011;13153;52.316;21.166;2024-02-15T13:48:06;44.53;;;22.73;;
25207;SDS011;13153;52.316;21.166;2024-02-15T13:50:34;43.05;;;23.35;;
25207;SDS011;13153;52.316;21.166;2024-02-15T13:53:01;47.63;;;22.20;;
25207;SDS011;13153;52.316;21.166;2024-02-15T13:55:30;44.05;;;22.85;;
25207;SDS011;13153;52.316;21.166;2024-02-15T13:57:56;43.53;;;22.00;;
25207;SDS011;13153;52.316;21.166;2024-02-15T14:00:23;44.65;;;22.40;;
25207;SDS011;13153;52.316;21.166;2024-02-15T14:02:59;45.50;;;23.60;;
25207;SDS011;13153;52.316;21.166;2024-02-15T14:08:18;42.38;;;21.48;;
25207;SDS011;13153;52.316;21.166;2024-02-15T14:10:45;40.88;;;20.48;;
25207;SDS011;13153;52.316;21.166;2024-02-15T14:13:11;41.72;;;20.67;;
25207;SDS011;13153;52.316;21.166;2024-02-15T14:15:38;37.47;;;19.17;;
25207;SDS011;13153;52.316;21.166;2024-02-15T14:18:07;37.65;;;18.90;;
25207;SDS011;13153;52.316;21.166;2024-02-15T14:20:36;40.50;;;18.80;;
25207;SDS011;13153;52.316;21.166;2024-02-15T14:23:02;38.42;;;18.80;;
25207;SDS011;13153;52.316;21.166;2024-02-15T14:25:31;37.00;;;19.38;;
25207;SDS011;13153;52.316;21.166;2024-02-15T14:27:58;35.58;;;17.48;;
25207;SDS011;13153;52.316;21.166;2024-02-15T14:30:25;33.67;;;17.95;;
25207;SDS011;13153;52.316;21.166;2024-02-15T14:33:10;37.15;;;18.77;;
25207;SDS011;13153;52.316;21.166;2024-02-15T14:35:39;38.97;;;19.55;;
25207;SDS011;13153;52.316;21.166;2024-02-15T14:38:05;41.70;;;20.95;;
25207;SDS011;13153;52.316;21.166;2024-02-15T14:40:40;40.95;;;18.70;;
25207;SDS011;13153;52.316;21.166;2024-02-15T14:43:19;39.50;;;20.17;;
25207;SDS011;13153;52.316;21.166;2024-02-15T14:45:46;37.13;;;19.30;;
25207;SDS011;13153;52.316;21.166;2024-02-15T14:48:12;40.95;;;20.02;;
25207;SDS011;13153;52.316;21.166;2024-02-15T14:50:39;40.35;;;21.30;;
25207;SDS011;13153;52.316;21.166;2024-02-15T14:53:05;42.08;;;20.77;;
25207;SDS011;13153;52.316;21.166;2024-02-15T14:55:33;37.25;;;19.08;;